Time;durP1;ratioP1;P1;durP2;ratioP2;P2;SDS_P1;SDS_P2;PMS_P1;PMS_P2;Temp;Humidity;BMP_temperature;BMP_pressure;BME280_temperature;BME280_humidity;BME280_pressure;Samples;Min_cycle;Max_cycle;Signal;HPM_P1;HPM_P2
2021/10/12 00:07:18;;;;;;;;;;;8.00;99.90;;;;;;20857007;28;20290;-80
2021/10/12 00:17:19;;;;;;;;;;;8.00;99.90;;;;;;20857009;28;19925;-77
2021/10/12 00:27:20;;;;;;;;;;;7.80;99.90;;;;;;20855277;28;19913;-79
2021/10/12 00:37:20;;;;;;;;;;;7.70;99.90;;;;;;20856177;28;19913;-79
2021/10/12 00:47:21;;;;;;;;;;;7.50;99.90;;;;;;20855203;28;19971;-80
2021/10/12 00:57:22;;;;;;;;;;;7.60;99.90;;;;;;20867817;22;19948;-79
2021/10/12 01:07:22;;;;;;;;;;;7.50;99.90;;;;;;20849747;28;19978;-80
2021/10/12 01:17:23;;;;;;;;;;;7.60;99.90;;;;;;20815672;28;19920;-79
2021/10/12 01:27:24;;;;;;;;;;;7.80;99.90;;;;;;20830295;28;19913;-80
2021/10/12 01:37:25;;;;;;;;;;;7.80;99.90;;;;;;20830304;28;19920;-79
2021/10/12 01:47:29;;;;;;;;;;;7.70;99.90;;;;;;20829921;28;19928;-79
2021/10/12 01:57:30;;;;;;;;;;;7.70;99.90;;;;;;20829990;28;19913;-79
2021/10/12 02:07:31;;;;;;;;;;;7.70;99.90;;;;;;20827630;28;20287;-79
2021/10/12 02:17:32;;;;;;;;;;;7.70;99.90;;;;;;20827138;28;19998;-79
2021/10/12 02:27:32;;;;;;;;;;;7.80;99.90;;;;;;20828515;28;19909;-79
2021/10/12 02:37:33;;;;;;;;;;;7.90;99.90;;;;;;20826468;28;19912;-79
2021/10/12 02:47:34;;;;;;;;;;;7.80;99.90;;;;;;20827043;28;19909;-79
2021/10/12 02:57:35;;;;;;;;;;;7.80;99.90;;;;;;20826942;28;19913;-79
2021/10/12 03:07:35;;;;;;;;;;;7.70;99.90;;;;;;20828963;28;19992;-79
2021/10/12 03:17:36;;;;;;;;;;;7.60;99.90;;;;;;20805232;28;19959;-79
2021/10/12 03:27:37;;;;;;;;;;;7.70;99.90;;;;;;20824700;28;19909;-79
2021/10/12 03:37:37;;;;;;;;;;;7.50;99.90;;;;;;20824980;28;19913;-79
2021/10/12 03:47:38;;;;;;;;;;;7.50;99.90;;;;;;20824669;28;19940;-79
2021/10/12 03:57:39;;;;;;;;;;;7.30;99.90;;;;;;20835315;28;19917;-79
2021/10/12 04:07:40;;;;;;;;;;;7.40;99.90;;;;;;20838551;28;19909;-79
2021/10/12 04:17:40;;;;;;;;;;;7.50;99.90;;;;;;20837950;28;19948;-79
2021/10/12 04:27:41;;;;;;;;;;;7.60;99.90;;;;;;20835398;28;19916;-79
2021/10/12 04:37:42;;;;;;;;;;;7.70;99.90;;;;;;20835507;28;19916;-79
2021/10/12 04:47:43;;;;;;;;;;;7.80;99.90;;;;;;20834588;28;19931;-78
2021/10/12 04:57:43;;;;;;;;;;;7.60;99.90;;;;;;20833192;28;19912;-77
2021/10/12 05:07:44;;;;;;;;;;;7.60;99.90;;;;;;20833330;28;19963;-76
2021/10/12 05:17:47;;;;;;;;;;;7.40;99.90;;;;;;20832189;28;19921;-76
2021/10/12 05:27:49;;;;;;;;;;;7.50;99.90;;;;;;20832110;28;20028;-77
2021/10/12 05:37:50;;;;;;;;;;;7.40;99.90;;;;;;20832726;28;20324;-77
2021/10/12 05:47:50;;;;;;;;;;;7.50;99.90;;;;;;20830959;28;20364;-78
2021/10/12 05:58:12;;;;;;;;;;;7.60;99.90;;;;;;20832431;28;19983;-77
2021/10/12 06:08:13;;;;;;;;;;;7.60;99.90;;;;;;20832325;28;20339;-77
2021/10/12 06:18:13;;;;;;;;;;;7.60;99.90;;;;;;20830837;28;19995;-78
2021/10/12 06:28:15;;;;;;;;;;;7.50;99.90;;;;;;20829355;28;19909;-78
2021/10/12 06:38:17;;;;;;;;;;;7.70;99.90;;;;;;20830852;28;19913;-77
2021/10/12 06:48:18;;;;;;;;;;;7.80;99.90;;;;;;20829975;28;19909;-78
2021/10/12 06:58:22;;;;;;;;;;;8.00;99.90;;;;;;20842814;23;19925;-77
2021/10/12 07:08:23;;;;;;;;;;;8.10;99.90;;;;;;20835261;28;20011;-76
2021/10/12 07:18:24;;;;;;;;;;;8.20;99.90;;;;;;20896054;28;19923;-77
2021/10/12 07:28:25;;;;;;;;;;;8.30;99.90;;;;;;20913810;28;19962;-77
2021/10/12 07:38:26;;;;;;;;;;;8.40;99.90;;;;;;20922059;28;19954;-77
2021/10/12 07:48:26;;;;;;;;;;;8.50;99.90;;;;;;20921192;28;20011;-77
2021/10/12 07:58:27;;;;;;;;;;;8.70;99.90;;;;;;20919783;28;19996;-77
2021/10/12 08:08:29;;;;;;;;;;;8.90;99.90;;;;;;20849353;28;19909;-78
2021/10/12 08:18:30;;;;;;;;;;;8.90;99.90;;;;;;20837892;28;20394;-78
2021/10/12 08:28:31;;;;;;;;;;;9.10;99.90;;;;;;20856286;28;19909;-78
2021/10/12 08:38:34;;;;;;;;;;;9.60;99.90;;;;;;20840183;28;19913;-78
2021/10/12 08:48:35;;;;;;;;;;;9.80;99.90;;;;;;20887276;28;19915;-78
2021/10/12 08:58:36;;;;;;;;;;;10.10;99.90;;;;;;20936884;28;19912;-79
2021/10/12 09:08:40;;;;;;;;;;;9.90;99.90;;;;;;20939356;28;20387;-80
2021/10/12 09:18:49;;;;;;;;;;;10.00;99.90;;;;;;20932297;28;19913;-81
2021/10/12 09:28:50;;;;;;;;;;;9.80;99.90;;;;;;20928307;28;20424;-80
2021/10/12 09:38:51;;;;;;;;;;;9.80;99.90;;;;;;20931774;28;19920;-80
2021/10/12 09:48:52;;;;;;;;;;;9.90;99.90;;;;;;20931894;28;19909;-79
2021/10/12 09:58:53;;;;;;;;;;;9.90;99.90;;;;;;20928026;28;19919;-80
2021/10/12 10:08:54;;;;;;;;;;;10.20;99.90;;;;;;20918461;28;19909;-79
2021/10/12 10:18:55;;;;;;;;;;;10.40;99.90;;;;;;20897175;28;20354;-79
2021/10/12 10:29:16;;;;;;;;;;;11.00;99.90;;;;;;20897352;28;19909;-79
2021/10/12 10:39:36;;;;;;;;;;;11.10;99.90;;;;;;20889938;28;19913;-79
2021/10/12 10:49:36;;;;;;;;;;;11.00;99.90;;;;;;20890865;28;19909;-79
2021/10/12 10:59:37;;;;;;;;;;;11.00;99.90;;;;;;20885835;28;20391;-78
2021/10/12 11:09:42;;;;;;;;;;;10.90;99.90;;;;;;20907262;28;19932;-80
2021/10/12 11:19:52;;;;;;;;;;;11.10;99.90;;;;;;20935158;28;19920;-80
2021/10/12 11:30:06;;;;;;;;;;;11.40;99.90;;;;;;20946969;28;20390;-79
2021/10/12 11:40:16;;;;;;;;;;;11.50;99.90;;;;;;20951528;28;19935;-79
2021/10/12 11:50:17;;;;;;;;;;;11.80;99.90;;;;;;20951049;28;20306;-80
2021/10/12 12:00:34;;;;;;;;;;;12.00;99.90;;;;;;20955236;28;19987;-80
2021/10/12 12:10:36;;;;;;;;;;;12.20;99.90;;;;;;20945476;28;20410;-80
2021/10/12 12:20:47;;;;;;;;;;;12.40;99.90;;;;;;20931887;28;19917;-80
2021/10/12 12:30:48;;;;;;;;;;;13.00;99.90;;;;;;20911039;28;20367;-79
2021/10/12 12:40:51;;;;;;;;;;;12.80;99.90;;;;;;20920735;28;19966;-79
2021/10/12 12:50:59;;;;;;;;;;;12.40;99.90;;;;;;20928536;28;19908;-77
2021/10/12 13:01:01;;;;;;;;;;;12.60;99.90;;;;;;20920916;22;19931;-76
2021/10/12 13:11:02;;;;;;;;;;;13.20;99.90;;;;;;20833322;28;19952;-76
2021/10/12 13:21:03;;;;;;;;;;;13.30;99.90;;;;;;20831857;28;19924;-76
2021/10/12 13:31:05;;;;;;;;;;;13.10;99.90;;;;;;20830297;28;20287;-76
2021/10/12 13:41:06;;;;;;;;;;;13.00;99.90;;;;;;20835643;28;19970;-77
2021/10/12 13:51:14;;;;;;;;;;;13.00;99.90;;;;;;21148014;27;20279;-76
2021/10/12 14:01:14;;;;;;;;;;;13.00;99.90;;;;;;21147050;28;19920;-76
2021/10/12 14:11:15;;;;;;;;;;;13.10;99.90;;;;;;21148583;28;19912;-73
2021/10/12 14:21:18;;;;;;;;;;;13.20;99.90;;;;;;21128521;28;19916;-76
2021/10/12 14:31:19;;;;;;;;;;;14.00;99.90;;;;;;21125453;28;19916;-75
2021/10/12 14:41:19;;;;;;;;;;;13.50;99.90;;;;;;21121780;28;19920;-76
2021/10/12 14:51:20;;;;;;;;;;;13.50;99.90;;;;;;21121660;28;19919;-75
2021/10/12 15:01:21;;;;;;;;;;;13.00;99.90;;;;;;21073157;28;20524;-76
2021/10/12 15:11:22;;;;;;;;;;;12.70;99.90;;;;;;21046600;28;19916;-76
2021/10/12 15:21:23;;;;;;;;;;;12.60;99.90;;;;;;21062530;28;19930;-76
2021/10/12 15:31:25;;;;;;;;;;;12.50;99.90;;;;;;21061352;28;19922;-75
2021/10/12 15:41:25;;;;;;;;;;;12.60;99.90;;;;;;21063679;28;20011;-76
2021/10/12 15:51:27;;;;;;;;;;;12.30;99.90;;;;;;21063378;28;19920;-75
2021/10/12 16:01:28;;;;;;;;;;;12.20;99.90;;;;;;21061948;28;19916;-76
2021/10/12 16:11:29;;;;;;;;;;;11.90;99.90;;;;;;21062171;28;19923;-75
2021/10/12 16:31:48;;;;;;;;;;;11.60;99.90;;;;;;21058666;28;20519;-76
2021/10/12 16:41:51;;;;;;;;;;;11.50;99.90;;;;;;21056914;28;20439;-77
2021/10/12 16:51:51;;;;;;;;;;;11.40;99.90;;;;;;21058047;28;19927;-76
2021/10/12 17:01:55;;;;;;;;;;;11.20;99.90;;;;;;21057225;28;19920;-76
2021/10/12 17:11:56;;;;;;;;;;;11.00;99.90;;;;;;21056709;28;19941;-75
2021/10/12 17:21:57;;;;;;;;;;;11.00;99.90;;;;;;21055283;28;20260;-76
2021/10/12 17:31:57;;;;;;;;;;;10.90;99.90;;;;;;21054522;28;20310;-76
2021/10/12 17:41:58;;;;;;;;;;;10.80;99.90;;;;;;21055527;28;19920;-76
2021/10/12 17:51:59;;;;;;;;;;;10.40;99.90;;;;;;21052517;28;19916;-77
2021/10/12 18:01:59;;;;;;;;;;;10.50;99.90;;;;;;21064019;28;20006;-77
2021/10/12 18:12:00;;;;;;;;;;;10.60;99.90;;;;;;21072066;28;19963;-78
2021/10/12 18:22:01;;;;;;;;;;;10.40;99.90;;;;;;21071344;28;19942;-77
2021/10/12 18:32:02;;;;;;;;;;;10.30;99.90;;;;;;21076679;28;19912;-78
2021/10/12 18:42:03;;;;;;;;;;;10.30;99.90;;;;;;21069172;28;19923;-76
2021/10/12 18:52:05;;;;;;;;;;;10.20;99.90;;;;;;21087237;28;19973;-77
2021/10/12 19:02:07;;;;;;;;;;;10.30;99.90;;;;;;21067807;22;20004;-83
2021/10/12 19:12:12;;;;;;;;;;;10.20;99.90;;;;;;20947199;28;19920;-80
2021/10/12 19:22:18;;;;;;;;;;;10.10;99.90;;;;;;20934750;28;19921;-81
2021/10/12 19:32:19;;;;;;;;;;;10.10;99.90;;;;;;20952594;28;19935;-81
2021/10/12 19:42:20;;;;;;;;;;;10.00;99.90;;;;;;20956536;28;19983;-81
2021/10/12 19:52:21;;;;;;;;;;;10.00;99.90;;;;;;20947409;28;19936;-82
2021/10/12 20:02:35;;;;;;;;;;;10.00;99.90;;;;;;20937386;28;20347;-81
2021/10/12 20:12:36;;;;;;;;;;;10.00;99.90;;;;;;20981108;28;19912;-79
2021/10/12 20:22:37;;;;;;;;;;;9.90;99.90;;;;;;20980194;28;19944;-82
2021/10/12 20:32:39;;;;;;;;;;;10.00;99.90;;;;;;20982647;28;19931;-82
2021/10/12 20:42:40;;;;;;;;;;;10.00;99.90;;;;;;20966636;28;19921;-79
2021/10/12 20:52:40;;;;;;;;;;;9.90;99.90;;;;;;20966512;28;19971;-79
2021/10/12 21:02:41;;;;;;;;;;;9.90;99.90;;;;;;20967804;28;19963;-84
2021/10/12 21:12:44;;;;;;;;;;;9.80;99.90;;;;;;20984074;28;19897;-81
2021/10/12 21:22:45;;;;;;;;;;;9.60;99.90;;;;;;20988317;28;19916;-81
2021/10/12 21:32:45;;;;;;;;;;;9.50;99.90;;;;;;20962309;28;19913;-81
2021/10/12 21:42:46;;;;;;;;;;;9.40;99.90;;;;;;20993284;28;19981;-80
2021/10/12 21:52:47;;;;;;;;;;;9.30;99.90;;;;;;20952003;28;19917;-82
2021/10/12 22:02:48;;;;;;;;;;;9.30;99.90;;;;;;20968666;28;19988;-80
2021/10/12 22:12:48;;;;;;;;;;;9.30;99.90;;;;;;20968438;28;19913;-80
2021/10/12 22:22:49;;;;;;;;;;;9.20;99.90;;;;;;20992790;28;20222;-81
2021/10/12 22:32:50;;;;;;;;;;;9.20;99.90;;;;;;20974348;28;19912;-79
2021/10/12 22:42:51;;;;;;;;;;;9.10;99.90;;;;;;20991687;28;19917;-79
2021/10/12 22:52:51;;;;;;;;;;;9.00;99.90;;;;;;20989158;28;20363;-80
2021/10/12 23:02:52;;;;;;;;;;;8.90;99.90;;;;;;20991073;28;19916;-81
2021/10/12 23:12:53;;;;;;;;;;;9.00;99.90;;;;;;20977282;28;19995;-81
2021/10/12 23:22:54;;;;;;;;;;;8.90;99.90;;;;;;20994270;28;19988;-81
2021/10/12 23:32:54;;;;;;;;;;;8.90;99.90;;;;;;20988539;28;19948;-81
2021/10/12 23:42:55;;;;;;;;;;;8.80;99.90;;;;;;20990026;28;19920;-81
2021/10/12 23:52:56;;;;;;;;;;;8.80;99.90;;;;;;20965875;28;19920;-80
